Time;durP1;ratioP1;P1;durP2;ratioP2;P2;SDS_P1;SDS_P2;PMS_P1;PMS_P2;Temp;Humidity;BMP_temperature;BMP_pressure;BME280_temperature;BME280_humidity;BME280_pressure;Samples;Min_cycle;Max_cycle;Signal;HPM_P1;HPM_P2
2023/03/19 00:12:15;;;;;;;9.60;6.43;;;11.30;99.90;;;;;;2613095;54;21034;-75
2023/03/19 00:18:04;;;;;;;6.73;6.03;;;11.30;99.90;;;;;;2610869;54;20363;-76
2023/03/19 00:23:53;;;;;;;6.90;6.17;;;10.90;99.90;;;;;;2612553;54;20492;-76
2023/03/19 00:29:40;;;;;;;9.20;5.77;;;10.90;99.90;;;;;;2613070;46;20166;-77
2023/03/19 00:35:28;;;;;;;7.53;6.43;;;10.60;99.90;;;;;;2613154;39;20527;-75
2023/03/19 00:41:17;;;;;;;8.90;4.90;;;10.70;99.90;;;;;;2612865;54;20547;-76
2023/03/19 00:50:33;;;;;;;6.70;5.10;;;10.40;99.90;;;;;;2613249;54;20553;-76
2023/03/19 00:56:20;;;;;;;8.60;6.30;;;10.20;99.90;;;;;;2613347;54;20413;-75
2023/03/19 01:02:08;;;;;;;11.60;7.03;;;9.70;99.90;;;;;;2612357;54;20126;-76
2023/03/19 01:07:56;;;;;;;10.23;6.67;;;9.40;99.90;;;;;;2612478;39;20206;-76
2023/03/19 01:13:43;;;;;;;9.23;7.60;;;9.20;99.90;;;;;;2613348;54;20663;-76
2023/03/19 01:19:31;;;;;;;10.53;8.00;;;9.00;99.90;;;;;;2611499;54;21264;-75
2023/03/19 01:25:19;;;;;;;9.63;8.07;;;8.80;99.90;;;;;;2613375;54;20126;-76
2023/03/19 01:31:07;;;;;;;9.77;8.20;;;8.70;99.90;;;;;;2613694;39;20510;-75
2023/03/19 01:36:55;;;;;;;12.77;8.43;;;8.60;99.90;;;;;;2613716;54;20468;-76
2023/03/19 01:52:43;;;;;;;12.53;8.40;;;8.40;99.90;;;;;;2611728;54;20394;-75
2023/03/19 01:58:30;;;;;;;10.63;8.77;;;8.20;99.90;;;;;;2611248;54;20137;-75
2023/03/19 02:04:18;;;;;;;9.77;8.47;;;8.00;99.90;;;;;;2610365;54;20158;-68
2023/03/19 02:10:10;;;;;;;13.60;8.63;;;8.00;99.90;;;;;;2611217;54;20392;-67
2023/03/19 02:15:57;;;;;;;10.70;9.80;;;7.90;99.90;;;;;;2611158;54;20406;-68
2023/03/19 02:21:45;;;;;;;12.20;10.03;;;7.80;99.90;;;;;;2611040;54;20165;-67
2023/03/19 02:27:33;;;;;;;12.53;10.63;;;7.80;99.90;;;;;;2612780;54;20158;-68
2023/03/19 02:33:20;;;;;;;13.53;10.90;;;7.60;99.90;;;;;;2612188;54;20924;-67
2023/03/19 02:45:30;;;;;;;13.00;10.30;;;7.90;99.90;;;;;;2612493;54;20388;-68
2023/03/19 02:51:18;;;;;;;11.53;10.43;;;8.10;99.90;;;;;;2611654;54;20466;-68
2023/03/19 02:54:34;;;;;;;11.63;10.43;;;8.10;99.90;;;;;;2612373;54;20981;-68
2023/03/19 03:00:22;;;;;;;11.63;10.53;;;8.00;99.90;;;;;;2612877;54;20395;-67
2023/03/19 03:06:09;;;;;;;13.60;11.03;;;8.10;99.90;;;;;;2612734;54;20708;-68
2023/03/19 03:11:57;;;;;;;18.73;10.67;;;8.30;99.90;;;;;;2613448;54;20250;-68
2023/03/19 03:17:45;;;;;;;11.90;10.67;;;9.00;99.90;;;;;;2613394;54;20169;-68
2023/03/19 03:23:33;;;;;;;11.63;9.50;;;9.10;99.90;;;;;;2611190;54;20399;-68
2023/03/19 03:29:21;;;;;;;11.43;10.33;;;9.30;99.90;;;;;;2612329;54;20252;-68
2023/03/19 03:35:08;;;;;;;10.47;9.37;;;9.50;99.90;;;;;;2612183;54;20652;-67
2023/03/19 03:40:56;;;;;;;10.83;9.33;;;9.50;99.90;;;;;;2612138;54;20122;-68
2023/03/19 03:46:44;;;;;;;10.40;8.63;;;9.80;99.90;;;;;;2611853;54;20134;-68
2023/03/19 03:50:03;;;;;;;9.40;8.27;;;9.90;99.90;;;;;;2610623;47;20927;-68
2023/03/19 03:52:32;;;;;;;11.47;9.00;;;10.00;99.90;;;;;;2611856;54;20147;-68
2023/03/19 03:58:20;;;;;;;7.43;6.73;;;9.80;99.90;;;;;;2613043;39;20510;-74
2023/03/19 04:04:08;;;;;;;7.47;6.70;;;9.50;99.90;;;;;;2613093;39;20414;-75
2023/03/19 04:09:58;;;;;;;9.00;8.10;;;9.30;99.90;;;;;;2612774;54;20130;-74
2023/03/19 04:15:45;;;;;;;8.43;7.63;;;9.10;99.90;;;;;;2613626;54;20399;-73
2023/03/19 04:21:33;;;;;;;9.77;8.87;;;9.00;99.90;;;;;;2614590;54;20146;-74
2023/03/19 04:27:21;;;;;;;8.53;7.73;;;8.90;99.90;;;;;;2613723;39;20885;-74
2023/03/19 04:33:09;;;;;;;8.27;7.30;;;9.00;99.90;;;;;;2614366;54;20134;-74
2023/03/19 04:38:57;;;;;;;12.47;8.00;;;9.20;99.90;;;;;;2613266;54;20379;-74
2023/03/19 04:44:45;;;;;;;7.73;7.03;;;9.50;99.90;;;;;;2611298;54;20146;-74
2023/03/19 04:54:32;;;;;;;9.27;6.27;;;10.20;99.90;;;;;;2613318;39;20892;-74
2023/03/19 05:00:20;;;;;;;8.40;5.93;;;10.40;99.90;;;;;;2612826;54;20379;-74
2023/03/19 05:06:07;;;;;;;6.27;5.70;;;10.40;99.90;;;;;;2613501;54;20366;-74
2023/03/19 05:11:56;;;;;;;5.73;5.03;;;10.60;99.90;;;;;;2613567;54;20165;-74
2023/03/19 05:17:43;;;;;;;5.50;5.00;;;10.60;99.90;;;;;;2612886;54;20427;-74
2023/03/19 05:23:31;;;;;;;8.27;5.87;;;10.80;99.90;;;;;;2613778;39;20822;-74
2023/03/19 05:29:19;;;;;;;4.93;4.47;;;10.70;99.90;;;;;;2613174;54;20154;-74
2023/03/19 05:35:07;;;;;;;5.30;4.80;;;10.80;99.90;;;;;;2613741;54;20130;-74
2023/03/19 05:41:02;;;;;;;5.23;4.73;;;10.80;99.90;;;;;;2613882;54;20358;-75
2023/03/19 05:46:51;;;;;;;4.60;3.93;;;10.90;99.90;;;;;;2613542;39;20497;-75
2023/03/19 05:50:01;;;;;;;6.10;4.30;;;10.80;99.90;;;;;;2612665;54;21028;-73
2023/03/19 05:52:27;;;;;;;5.00;4.50;;;10.90;99.90;;;;;;2611687;47;20427;-74
2023/03/19 05:58:15;;;;;;;6.10;4.43;;;10.80;99.90;;;;;;2613027;54;20778;-74
2023/03/19 06:04:03;;;;;;;7.40;4.57;;;10.60;99.90;;;;;;2612590;54;20387;-73
2023/03/19 06:09:51;;;;;;;7.63;5.00;;;10.40;99.90;;;;;;2613137;54;20151;-75
2023/03/19 06:15:39;;;;;;;10.60;6.50;;;10.30;99.90;;;;;;2613857;54;20149;-74
2023/03/19 06:21:29;;;;;;;6.50;5.60;;;10.30;99.90;;;;;;2613216;54;20130;-74
2023/03/19 06:27:17;;;;;;;6.23;5.63;;;10.30;99.90;;;;;;2613013;54;20357;-75
2023/03/19 06:33:05;;;;;;;6.80;5.70;;;10.40;99.90;;;;;;2612275;54;20399;-74
2023/03/19 06:38:52;;;;;;;9.60;5.87;;;10.50;99.90;;;;;;2612802;54;20399;-74
2023/03/19 06:44:40;;;;;;;5.33;4.83;;;10.40;99.90;;;;;;2613072;54;20159;-74
2023/03/19 06:54:34;;;;;;;6.77;6.17;;;10.40;99.90;;;;;;2612680;39;20766;-74
2023/03/19 07:00:22;;;;;;;9.73;7.17;;;10.40;99.90;;;;;;2611928;54;20422;-74
2023/03/19 07:06:10;;;;;;;8.07;6.20;;;10.40;99.90;;;;;;2613946;54;20358;-75
2023/03/19 07:11:58;;;;;;;9.33;6.90;;;10.40;99.90;;;;;;2613123;54;20371;-74
2023/03/19 07:17:46;;;;;;;7.90;7.10;;;10.40;99.90;;;;;;2614121;54;20707;-77
2023/03/19 07:23:34;;;;;;;8.47;6.63;;;10.50;99.90;;;;;;2612936;54;20422;-73
2023/03/19 07:29:22;;;;;;;7.93;7.10;;;10.60;99.90;;;;;;2610276;54;20126;-75
2023/03/19 07:35:10;;;;;;;7.40;6.70;;;10.80;99.90;;;;;;2610386;54;20158;-73
2023/03/19 07:40:58;;;;;;;9.43;6.67;;;10.90;99.90;;;;;;2607798;54;20378;-74
2023/03/19 07:46:46;;;;;;;6.27;5.73;;;11.00;99.90;;;;;;2608652;54;20680;-74
2023/03/19 07:50:01;;;;;;;8.50;6.57;;;11.10;99.90;;;;;;2608535;54;20418;-74
2023/03/19 07:52:27;;;;;;;7.30;6.70;;;11.10;99.90;;;;;;2608285;54;20151;-74
2023/03/19 07:58:15;;;;;;;7.97;6.83;;;11.20;99.90;;;;;;2605894;54;20150;-74
2023/03/19 08:04:03;;;;;;;7.53;6.67;;;11.20;99.90;;;;;;2608594;54;20422;-73
2023/03/19 08:09:51;;;;;;;7.57;6.60;;;11.20;99.90;;;;;;2609358;54;20258;-74
2023/03/19 08:15:39;;;;;;;7.07;6.37;;;11.20;99.90;;;;;;2609187;54;20637;-74
2023/03/19 08:21:28;;;;;;;10.33;7.30;;;11.20;99.90;;;;;;2608410;54;20131;-75
2023/03/19 08:27:15;;;;;;;6.57;5.97;;;11.20;99.90;;;;;;2609411;54;20375;-74
2023/03/19 08:33:03;;;;;;;7.23;6.53;;;11.20;99.90;;;;;;2610329;39;20527;-75
2023/03/19 08:38:53;;;;;;;7.40;6.63;;;11.50;99.90;;;;;;2612204;46;20161;-74
2023/03/19 08:44:41;;;;;;;7.67;6.87;;;11.50;99.90;;;;;;2613774;54;20423;-74
2023/03/19 08:54:35;;;;;;;6.40;5.80;;;11.60;99.90;;;;;;2612213;39;21144;-75
2023/03/19 09:00:22;;;;;;;6.50;5.90;;;11.90;99.90;;;;;;2613171;54;20395;-74
2023/03/19 09:06:13;;;;;;;6.80;6.20;;;12.30;99.90;;;;;;2612556;54;20145;-74
2023/03/19 09:12:00;;;;;;;6.53;5.90;;;12.50;99.90;;;;;;2611810;54;20330;-75
2023/03/19 09:17:48;;;;;;;7.13;6.50;;;12.60;99.90;;;;;;2613480;54;20234;-75
2023/03/19 09:23:36;;;;;;;6.60;6.00;;;13.00;99.90;;;;;;2612029;54;20133;-76
2023/03/19 09:29:23;;;;;;;7.10;6.60;;;13.70;99.90;;;;;;2613380;54;20134;-76
2023/03/19 09:35:11;;;;;;;8.23;7.53;;;13.60;99.90;;;;;;2613142;54;20186;-78
2023/03/19 09:47:35;;;;;;;8.07;7.37;;;13.40;99.90;;;;;;2613510;54;20399;-77
2023/03/19 10:00:00;;;;;;;8.77;8.10;;;13.80;99.90;;;;;;2608830;54;20383;-70
2023/03/19 10:19:05;;;;;;;7.43;6.83;;;14.80;99.90;;;;;;2609125;54;20401;-70
2023/03/19 10:24:55;;;;;;;7.80;7.20;;;14.50;99.90;;;;;;2609962;54;20384;-71
2023/03/19 10:37:19;;;;;;;9.63;8.93;;;14.40;99.90;;;;;;2607657;54;21213;-70
2023/03/19 10:49:41;;;;;;;10.40;9.60;;;14.70;99.90;;;;;;2610725;54;20383;-70
2023/03/19 10:55:30;;;;;;;11.57;10.67;;;14.40;99.90;;;;;;2608600;54;20450;-70
2023/03/19 10:58:48;;;;;;;11.20;10.30;;;14.80;99.90;;;;;;2608413;39;20496;-70
2023/03/19 11:04:36;;;;;;;11.10;10.30;;;15.00;99.90;;;;;;2608609;54;20547;-70
2023/03/19 11:10:28;;;;;;;9.20;8.60;;;15.40;99.90;;;;;;2604879;54;20234;-71
2023/03/19 11:16:16;;;;;;;9.73;9.03;;;15.10;99.90;;;;;;2605921;54;20946;-71
2023/03/19 11:22:14;;;;;;;11.10;10.30;;;14.60;99.90;;;;;;2609149;54;20143;-70
2023/03/19 11:28:02;;;;;;;9.60;8.90;;;14.70;99.90;;;;;;2610307;54;20406;-70
2023/03/19 11:40:45;;;;;;;7.60;6.90;;;13.80;99.90;;;;;;2608553;54;20399;-69
2023/03/19 11:46:38;;;;;;;7.80;6.40;;;12.50;99.90;;;;;;2612168;54;20378;-70
2023/03/19 12:02:24;;;;;;;6.60;5.63;;;12.20;99.90;;;;;;2613270;54;20411;-71
2023/03/19 12:15:00;;;;;;;14.37;13.00;;;12.00;99.90;;;;;;2612429;54;20362;-70
2023/03/19 12:53:29;;;;;;;7.83;7.03;;;13.00;99.90;;;;;;2613606;39;20728;-70
2023/03/19 13:12:37;;;;;;;9.10;7.90;;;13.30;99.90;;;;;;2610950;54;20491;-70
2023/03/19 13:18:24;;;;;;;9.97;8.97;;;13.30;99.90;;;;;;2612178;54;20993;-70
2023/03/19 13:24:17;;;;;;;9.47;8.00;;;13.30;99.90;;;;;;2612703;54;20707;-71
2023/03/19 13:30:09;;;;;;;9.20;7.47;;;13.00;99.90;;;;;;2612837;54;20392;-70
2023/03/19 13:36:00;;;;;;;8.83;7.87;;;12.90;99.90;;;;;;2612502;54;20412;-71
2023/03/19 13:41:50;;;;;;;7.77;7.07;;;12.80;99.90;;;;;;2613079;54;20395;-71
2023/03/19 13:47:41;;;;;;;9.87;7.53;;;13.50;99.90;;;;;;2614214;54;20888;-71
2023/03/19 13:58:11;;;;;;;6.40;5.80;;;18.60;99.90;;;;;;2609577;54;20444;-71
2023/03/19 14:10:30;;;;;;;6.03;5.17;;;16.30;99.90;;;;;;2608496;46;20438;-71
2023/03/19 14:16:36;;;;;;;5.80;5.23;;;15.40;99.90;;;;;;2608634;54;20388;-70
2023/03/19 14:33:14;;;;;;;6.67;6.07;;;14.90;99.90;;;;;;2608223;54;20371;-70
2023/03/19 15:02:41;;;;;;;6.87;6.27;;;16.00;99.90;;;;;;2611678;46;20383;-71
2023/03/19 15:08:31;;;;;;;6.70;6.20;;;16.10;99.90;;;;;;2610931;54;20401;-71
2023/03/19 15:14:30;;;;;;;7.83;7.10;;;15.70;99.90;;;;;;2609798;54;20408;-70
2023/03/19 15:20:21;;;;;;;6.70;6.20;;;15.40;99.90;;;;;;2608885;54;20439;-71
2023/03/19 15:26:10;;;;;;;5.90;5.50;;;14.70;99.90;;;;;;2609671;54;20391;-71
2023/03/19 15:31:57;;;;;;;6.40;5.90;;;14.40;99.90;;;;;;2610905;54;20544;-70
2023/03/19 15:37:51;;;;;;;6.57;6.07;;;14.10;99.90;;;;;;2612287;54;20223;-71
2023/03/19 15:43:40;;;;;;;6.60;6.10;;;14.10;99.90;;;;;;2610356;54;20399;-70
2023/03/19 15:49:34;;;;;;;6.03;5.63;;;14.00;99.90;;;;;;2612316;39;20854;-70
2023/03/19 15:55:25;;;;;;;6.37;5.90;;;13.80;99.90;;;;;;2613054;54;20439;-71
2023/03/19 16:00:59;;;;;;;6.40;5.90;;;13.90;99.90;;;;;;2610987;54;20394;-70
2023/03/19 16:06:48;;;;;;;6.10;5.70;;;13.80;99.90;;;;;;2612978;54;20470;-71
2023/03/19 16:12:38;;;;;;;6.60;5.53;;;13.80;99.90;;;;;;2613360;54;20382;-70
2023/03/19 16:18:29;;;;;;;6.97;6.30;;;13.90;99.90;;;;;;2611655;54;20468;-71
2023/03/19 16:30:47;;;;;;;7.97;7.27;;;13.70;99.90;;;;;;2613678;54;20383;-71
2023/03/19 16:36:34;;;;;;;7.80;7.00;;;13.50;99.90;;;;;;2610864;39;20790;-69
2023/03/19 16:42:27;;;;;;;7.57;6.97;;;13.50;99.90;;;;;;2613143;39;20514;-71
2023/03/19 16:48:15;;;;;;;8.30;7.50;;;13.50;99.90;;;;;;2613178;54;20371;-70
2023/03/19 16:54:03;;;;;;;8.67;7.90;;;13.40;99.90;;;;;;2613651;39;20616;-71
2023/03/19 17:03:16;;;;;;;8.40;7.60;;;13.30;99.90;;;;;;2613215;39;20753;-71
2023/03/19 17:09:03;;;;;;;9.20;8.30;;;13.20;99.90;;;;;;2612351;54;20386;-72
2023/03/19 17:14:51;;;;;;;8.53;7.10;;;13.20;99.90;;;;;;2613381;39;20659;-70
2023/03/19 17:27:10;;;;;;;8.97;7.57;;;13.00;99.90;;;;;;2613331;54;20487;-71
2023/03/19 17:32:58;;;;;;;7.83;7.03;;;12.90;99.90;;;;;;2612784;54;20346;-71
2023/03/19 17:38:45;;;;;;;8.20;7.40;;;12.80;99.90;;;;;;2612001;54;20146;-71
2023/03/19 17:44:33;;;;;;;8.20;6.93;;;12.70;99.90;;;;;;2613213;54;20150;-71
2023/03/19 17:50:27;;;;;;;8.87;8.00;;;12.70;99.90;;;;;;2612548;54;20131;-70
2023/03/19 17:56:17;;;;;;;11.47;9.47;;;12.50;99.90;;;;;;2611637;54;20354;-70
2023/03/19 18:05:27;;;;;;;8.93;7.60;;;12.50;99.90;;;;;;2612953;54;20427;-72
2023/03/19 18:11:15;;;;;;;8.30;7.50;;;12.40;99.90;;;;;;2611325;46;20221;-71
2023/03/19 18:17:03;;;;;;;10.20;8.20;;;12.40;99.90;;;;;;2613062;39;20573;-70
2023/03/19 18:22:51;;;;;;;10.20;8.83;;;12.40;99.90;;;;;;2612929;54;20387;-71
2023/03/19 18:28:39;;;;;;;12.57;10.30;;;12.30;99.90;;;;;;2612004;54;20157;-70
2023/03/19 18:34:26;;;;;;;9.63;8.63;;;12.30;99.90;;;;;;2612549;54;20126;-71
2023/03/19 18:40:18;;;;;;;8.63;7.80;;;12.30;99.90;;;;;;2614129;54;20118;-70
2023/03/19 18:46:12;;;;;;;10.43;8.73;;;12.30;99.90;;;;;;2609113;54;20368;-70
2023/03/19 18:51:59;;;;;;;11.73;10.17;;;12.30;99.90;;;;;;2610117;54;20500;-70
2023/03/19 18:57:53;;;;;;;13.20;11.80;;;12.30;99.90;;;;;;2608254;54;20127;-71
2023/03/19 19:00:56;;;;;;;11.80;10.63;;;12.20;99.90;;;;;;2609709;54;20430;-71
2023/03/19 19:03:28;;;;;;;10.80;9.73;;;12.10;99.90;;;;;;2607277;47;20419;-70
2023/03/19 19:09:15;;;;;;;11.27;10.27;;;12.00;99.90;;;;;;2608724;54;21187;-71
2023/03/19 19:15:04;;;;;;;9.97;8.97;;;11.90;99.90;;;;;;2609068;54;20134;-71
2023/03/19 19:20:53;;;;;;;13.60;10.10;;;11.90;99.90;;;;;;2608770;54;20423;-70
2023/03/19 19:26:43;;;;;;;13.20;10.83;;;12.00;99.90;;;;;;2611331;54;20387;-70
2023/03/19 19:32:33;;;;;;;16.93;11.73;;;12.30;99.90;;;;;;2610112;54;21025;-71
2023/03/19 19:38:21;;;;;;;20.00;13.33;;;12.20;99.90;;;;;;2609782;54;21055;-71
2023/03/19 19:44:18;;;;;;;21.13;14.23;;;12.10;99.90;;;;;;2611839;31;20602;-71
2023/03/19 19:56:40;;;;;;;17.37;13.77;;;11.90;99.90;;;;;;2610955;54;20963;-71
2023/03/19 20:06:00;;;;;;;22.70;14.77;;;11.70;99.90;;;;;;2610268;54;21335;-75
2023/03/19 20:11:48;;;;;;;20.67;15.20;;;11.70;99.90;;;;;;2610961;54;21330;-75
2023/03/19 20:17:35;;;;;;;25.30;14.93;;;11.60;99.90;;;;;;2610616;54;20661;-75
2023/03/19 20:23:23;;;;;;;18.17;13.63;;;11.70;99.90;;;;;;2615447;54;20247;-74
2023/03/19 20:29:14;;;;;;;23.03;15.43;;;11.70;99.90;;;;;;2616055;39;20542;-74
2023/03/19 20:35:04;;;;;;;18.60;14.03;;;11.70;99.90;;;;;;2615589;39;20450;-74
2023/03/19 20:40:54;;;;;;;19.60;13.57;;;11.60;99.90;;;;;;2615978;39;21064;-75
2023/03/19 20:46:42;;;;;;;19.60;13.30;;;11.70;99.90;;;;;;2607684;54;20382;-75
2023/03/19 20:52:30;;;;;;;19.77;15.30;;;11.60;99.90;;;;;;2607937;54;20130;-75
2023/03/19 20:58:26;;;;;;;23.00;16.50;;;11.50;99.90;;;;;;2607284;54;20165;-75
2023/03/19 21:01:26;;;;;;;24.87;16.20;;;11.50;99.90;;;;;;2607047;54;20399;-74
2023/03/19 21:03:52;;;;;;;26.33;17.57;;;11.40;99.90;;;;;;2609020;39;20891;-75
2023/03/19 21:09:39;;;;;;;19.70;15.00;;;11.50;99.90;;;;;;2607108;54;20359;-76
2023/03/19 21:15:28;;;;;;;18.50;14.33;;;11.40;99.90;;;;;;2608082;54;21156;-76
2023/03/19 21:21:17;;;;;;;23.73;17.40;;;11.20;99.90;;;;;;2608518;39;21057;-76
2023/03/19 21:27:05;;;;;;;22.43;16.17;;;11.10;99.90;;;;;;2610088;54;20419;-75
2023/03/19 21:32:52;;;;;;;20.60;15.93;;;11.00;99.90;;;;;;2611115;54;20154;-75
2023/03/19 21:38:40;;;;;;;22.87;16.87;;;11.00;99.90;;;;;;2611593;31;20612;-75
2023/03/19 21:44:30;;;;;;;24.13;17.67;;;10.90;99.90;;;;;;2611099;54;20123;-75
2023/03/19 21:50:19;;;;;;;30.87;20.77;;;10.90;99.90;;;;;;2611454;54;20427;-75
2023/03/19 22:06:07;;;;;;;28.90;20.80;;;10.60;99.90;;;;;;2610833;54;20499;-74
2023/03/19 22:11:55;;;;;;;29.20;21.00;;;10.60;99.90;;;;;;2613093;39;20958;-75
2023/03/19 22:17:43;;;;;;;30.43;19.20;;;10.50;99.90;;;;;;2610502;54;20416;-75
2023/03/19 22:23:30;;;;;;;29.47;19.40;;;10.60;99.90;;;;;;2611440;54;20161;-75
2023/03/19 22:29:24;;;;;;;30.53;19.57;;;10.50;99.90;;;;;;2610817;54;20126;-74
2023/03/19 22:35:17;;;;;;;27.40;19.87;;;10.40;99.90;;;;;;2610610;54;20495;-75
2023/03/19 22:47:22;;;;;;;33.13;19.70;;;10.20;99.90;;;;;;2610682;54;20905;-75
2023/03/19 22:53:24;;;;;;;27.70;19.63;;;10.10;99.90;;;;;;2611182;39;20880;-75
2023/03/19 22:59:13;;;;;;;30.93;18.87;;;10.10;99.90;;;;;;2610626;54;20993;-74
2023/03/19 23:08:29;;;;;;;29.27;17.73;;;9.90;99.90;;;;;;2612433;46;20442;-75
2023/03/19 23:14:17;;;;;;;31.20;18.60;;;10.00;99.90;;;;;;2610973;54;21000;-75
2023/03/19 23:26:51;;;;;;;34.93;18.60;;;9.90;99.90;;;;;;2609248;54;20384;-74
2023/03/19 23:32:38;;;;;;;26.03;18.83;;;9.80;99.90;;;;;;2608911;54;21026;-75
2023/03/19 23:38:26;;;;;;;22.67;17.13;;;9.80;99.90;;;;;;2608804;54;20118;-75
2023/03/19 23:44:16;;;;;;;26.63;18.10;;;9.80;99.90;;;;;;2609004;54;20379;-74
2023/03/19 23:50:08;;;;;;;23.80;18.10;;;9.70;99.90;;;;;;2608884;54;20391;-74
